Дата Пункты Температура Давл., мм. Влажн., % Ветер Погодные явления
Воздуха Воды Направл. Скорость
10.03.15 04:00 Одесса 8.0 4.0 765 45 Пн-С 2 17 часов
10.03.15 01:00 Одесса 7.0 4.0 767 59 Пн-С 2 14 часов
10.03.15 10:00 Одесса 5.0 3.0 768 72 Пн 3 11 часов
10.03.15 07:00 Одесса 3.0 3.0 769 76 Пн 4 08 часов
10.03.15 04:00 Одесса 2.0 4.0 768 79 Пн 3 05 часов
10.03.15 01:00 Одесса 1.0 4.0 769 87 Пн 1 02 часа
09.03.15 10:00 Одесса 3.0 4.0 769 79 Пн-З 1 23 часа
09.03.15 07:00 Одесса 6.0 4.0 769 56 Пн 2 20 часов
09.03.15 04:00 Одесса 6.0 4.0 769 43 С 1 17 часов
09.03.15 01:00 Одесса 5.0 4.0 770 65 Пн-С 1 14 часов
09.03.15 10:00 Одесса 5.0 3.0 772 72 С 2 11 часов
09.03.15 07:00 Одесса 2.0 3.0 772 88 Пн 2 08 часов
09.03.15 04:00 Одесса -1.0 4.0 771 94 Пн 2 05 часов
08.03.15 10:00 Одесса 3.0 4.0 771 71 Пн 3 23 часа
08.03.15 07:00 Одесса 2.0 4.0 772 70 З 1 20 часов
08.03.15 04:00 Одесса 5.0 4.0 772 61 Пд 1 17 часов
08.03.15 01:00 Одесса 5.0 4.0 773 71 С 1 14 часов
08.03.15 10:00 Одесса 4.0 3.0 773 80 Пн-С 4 11 часов
08.03.15 07:00 Одесса 2.0 3.0 773 85 Пн 3 08 часов
07.03.15 10:00 Одесса 2.0 4.0 773 78 Пн 4 23 часа
Количество строк
451 452 453 454 455 456 457 458 459 460
Page 456 of 523